In Rescue
 
Open Full Screen Window  High Contrast Mode
Wind Gusting 00 knots
03
May 25, 2022 9:32 PM CDT
Weather Information
Wind Direction
  020 °
Wind Speed
  03 kt (3 mph)
Wind Gust
  00 kt (0 mph)
Altimeter
29.91 in
Visibility
10 SM
Temperature
07° C
45° F
Dewpoint
06° C
43° F
Humidity
93%
1hr Rain Fall
00.00 in.
24hr Rain Fall
00.20 in.
Sky Condition
Overcast @ 1,000 ft
MVFR

METAR KJMR 260232Z AUTO 02003KT 10SM OVC010 07/06 A2991 RMK AO2

FAA Disclaimer: The data displayed is for advisory purposes only and is not to be used for flight planning or operations.